createdAt,value
2022-12-05T00:02:12.223Z,-7.75
2022-12-05T00:04:44.286Z,-7.82
2022-12-05T00:07:15.257Z,-7.83
2022-12-05T00:09:46.107Z,-7.86
2022-12-05T00:12:19.271Z,-7.84
2022-12-05T00:14:50.134Z,-7.82
2022-12-05T00:17:20.996Z,-7.80
2022-12-05T00:19:56.624Z,-7.83
2022-12-05T00:22:24.639Z,-7.82
2022-12-05T00:24:55.558Z,-7.85
2022-12-05T00:27:26.444Z,-7.86
2022-12-05T00:29:57.632Z,-7.91
2022-12-05T00:32:31.729Z,-7.86
2022-12-05T00:35:02.904Z,-7.92
2022-12-05T00:37:33.897Z,-7.94
2022-12-05T00:40:04.876Z,-7.96
2022-12-05T00:42:35.896Z,-7.98
2022-12-05T00:45:06.992Z,-7.96
2022-12-05T00:47:38.142Z,-7.95
2022-12-05T00:50:09.329Z,-7.97
2022-12-05T00:52:40.865Z,-7.93
2022-12-05T00:55:12.392Z,-7.97
2022-12-05T00:57:43.825Z,-8.02
2022-12-05T01:00:15.794Z,-8.08
2022-12-05T01:02:47.397Z,-8.05
2022-12-05T01:05:19.007Z,-8.05
2022-12-05T01:07:50.827Z,-8.10
2022-12-05T01:10:22.496Z,-8.12
2022-12-05T01:12:54.555Z,-8.13
2022-12-05T01:15:26.230Z,-8.15
2022-12-05T01:17:57.700Z,-8.11
2022-12-05T01:20:29.458Z,-8.07
2022-12-05T01:23:00.851Z,-8.13
2022-12-05T01:25:33.631Z,-8.15
2022-12-05T01:28:05.406Z,-8.13
2022-12-05T01:30:40.758Z,-8.10
2022-12-05T01:33:12.921Z,-8.08
2022-12-05T01:35:44.461Z,-8.10
2022-12-05T01:38:16.146Z,-8.07
2022-12-05T01:40:47.722Z,-8.11
2022-12-05T01:43:19.521Z,-8.08
2022-12-05T01:45:51.291Z,-8.15
2022-12-05T01:48:24.247Z,-8.17
2022-12-05T01:50:55.942Z,-8.19
2022-12-05T01:53:28.091Z,-8.17
2022-12-05T01:55:59.708Z,-8.17
2022-12-05T01:58:32.721Z,-8.17
2022-12-05T02:01:04.361Z,-8.21
2022-12-05T02:03:37.041Z,-8.14
2022-12-05T02:06:09.134Z,-8.19
2022-12-05T02:08:41.305Z,-8.19
2022-12-05T02:11:13.030Z,-8.23
2022-12-05T02:13:51.731Z,-8.23
2022-12-05T02:16:27.780Z,-8.20
2022-12-05T02:19:15.685Z,-8.20
2022-12-05T02:21:49.148Z,-8.17
2022-12-05T02:24:37.517Z,-8.24
2022-12-05T02:27:25.634Z,-8.30
2022-12-05T02:30:04.658Z,-8.28
2022-12-05T02:32:43.511Z,-8.28
2022-12-05T02:35:16.855Z,-8.33
2022-12-05T02:38:04.572Z,-8.29
2022-12-05T02:40:37.623Z,-8.30
2022-12-05T02:43:10.859Z,-8.28
2022-12-05T02:45:44.100Z,-8.29
2022-12-05T02:48:18.160Z,-8.25
2022-12-05T02:50:51.823Z,-8.25
2022-12-05T02:53:25.086Z,-8.23
2022-12-05T02:55:57.320Z,-8.20
2022-12-05T02:58:30.820Z,-8.23
2022-12-05T03:01:03.414Z,-8.21
2022-12-05T03:03:36.107Z,-8.18
2022-12-05T03:06:10.060Z,-8.18
2022-12-05T03:08:43.325Z,-8.16
2022-12-05T03:11:16.172Z,-8.16
2022-12-05T03:13:51.994Z,-8.20
2022-12-05T03:16:25.180Z,-8.21
2022-12-05T03:18:58.359Z,-8.21
2022-12-05T03:21:37.585Z,-8.19
2022-12-05T03:24:10.906Z,-8.18
2022-12-05T03:26:53.582Z,-8.19
2022-12-05T03:29:39.337Z,-8.19
2022-12-05T03:32:11.854Z,-8.19
2022-12-05T03:34:47.350Z,-8.23
2022-12-05T03:37:22.862Z,-8.22
2022-12-05T03:39:55.583Z,-8.26
2022-12-05T03:42:28.167Z,-8.15
2022-12-05T03:45:00.792Z,-8.14
2022-12-05T03:47:36.573Z,-8.17
2022-12-05T03:50:09.098Z,-8.19
2022-12-05T03:53:18.091Z,-8.21
2022-12-05T03:55:25.050Z,-8.24
2022-12-05T03:58:09.744Z,-8.27
2022-12-05T04:00:42.519Z,-8.26
2022-12-05T04:03:19.745Z,-8.30
2022-12-05T04:05:52.515Z,-8.32
2022-12-05T04:08:31.405Z,-8.27
2022-12-05T04:11:04.099Z,-8.35
2022-12-05T04:13:36.597Z,-8.38
2022-12-05T04:16:30.083Z,-8.37
2022-12-05T04:19:06.079Z,-8.43
2022-12-05T04:21:41.581Z,-8.36
2022-12-05T04:24:34.466Z,-8.34
2022-12-05T04:27:24.887Z,-8.39
2022-12-05T04:29:58.634Z,-8.36
2022-12-05T04:32:32.188Z,-8.30
2022-12-05T04:35:04.996Z,-8.31
2022-12-05T04:37:37.671Z,-8.34
2022-12-05T04:40:12.920Z,-8.25
2022-12-05T04:42:45.766Z,-8.34
2022-12-05T04:45:18.605Z,-8.33
2022-12-05T04:47:51.266Z,-8.29
2022-12-05T04:50:24.359Z,-8.36
2022-12-05T04:52:56.475Z,-8.37
2022-12-05T04:55:30.750Z,-8.35
2022-12-05T04:58:06.248Z,-8.38
2022-12-05T05:00:38.839Z,-8.41
2022-12-05T05:03:11.615Z,-8.42
2022-12-05T05:05:44.802Z,-8.43
2022-12-05T05:08:20.569Z,-8.48
2022-12-05T05:10:54.636Z,-8.46
2022-12-05T05:13:26.535Z,-8.47
2022-12-05T05:15:58.118Z,-8.47
2022-12-05T05:18:30.299Z,-8.42
2022-12-05T05:21:04.827Z,-8.48
2022-12-05T05:23:37.518Z,-8.46
2022-12-05T05:26:09.063Z,-8.50
2022-12-05T05:28:41.585Z,-8.51
2022-12-05T05:31:13.853Z,-8.47
2022-12-05T05:33:45.034Z,-8.43
2022-12-05T05:36:16.905Z,-8.43
2022-12-05T05:38:50.110Z,-8.43
2022-12-05T05:41:22.821Z,-8.34
2022-12-05T05:43:54.633Z,-8.29
2022-12-05T05:46:28.184Z,-8.24
2022-12-05T05:48:59.907Z,-8.21
2022-12-05T05:51:31.686Z,-8.13
2022-12-05T05:54:02.998Z,-8.15
2022-12-05T05:56:34.764Z,-8.12
2022-12-05T05:59:06.604Z,-8.02
2022-12-05T06:01:38.760Z,-7.92
2022-12-05T06:04:10.180Z,-7.78
2022-12-05T06:06:42.331Z,-7.62
2022-12-05T06:09:13.670Z,-7.53
2022-12-05T06:11:45.581Z,-7.44
2022-12-05T06:14:16.837Z,-7.29
2022-12-05T06:16:48.451Z,-7.19
2022-12-05T06:19:19.861Z,-7.06
2022-12-05T06:21:52.191Z,-6.94
2022-12-05T06:24:23.475Z,-6.88
2022-12-05T06:26:55.359Z,-6.82
2022-12-05T06:29:30.019Z,-6.72
2022-12-05T06:32:00.138Z,-6.63
2022-12-05T06:34:36.093Z,-6.55
2022-12-05T06:37:08.363Z,-6.49
2022-12-05T06:39:40.692Z,-6.44
2022-12-05T06:42:12.521Z,-6.37
2022-12-05T06:44:44.888Z,-6.28
2022-12-05T06:47:17.820Z,-6.01
2022-12-05T06:49:49.789Z,-5.67
2022-12-05T06:52:21.180Z,-5.46
2022-12-05T06:54:54.036Z,-5.33
2022-12-05T06:58:18.987Z,-5.20
2022-12-05T07:01:10.014Z,-5.35
2022-12-05T07:03:44.623Z,-5.05
2022-12-05T07:06:17.635Z,-4.56
2022-12-05T07:08:50.385Z,-4.26
2022-12-05T07:11:22.886Z,-3.99
2022-12-05T07:13:56.200Z,-3.94
2022-12-05T07:16:29.117Z,-4.08
2022-12-05T07:19:02.638Z,-4.24
2022-12-05T07:21:36.744Z,-4.39
2022-12-05T07:24:10.413Z,-4.55
2022-12-05T07:26:45.904Z,-4.68
2022-12-05T07:29:18.681Z,-4.75
2022-12-05T07:31:51.310Z,-4.90
2022-12-05T07:34:24.002Z,-4.96
2022-12-05T07:36:56.753Z,-4.94
2022-12-05T07:39:29.213Z,-4.98
2022-12-05T07:42:01.920Z,-4.97
2022-12-05T07:44:35.237Z,-4.98
2022-12-05T07:47:07.686Z,-5.00
2022-12-05T07:49:40.034Z,-5.03
2022-12-05T07:52:12.821Z,-5.03
2022-12-05T07:54:45.506Z,-4.98
2022-12-05T07:57:17.810Z,-4.95
2022-12-05T07:59:50.115Z,-4.97
2022-12-05T08:02:22.988Z,-5.02
2022-12-05T08:04:56.434Z,-5.02
2022-12-05T08:07:28.882Z,-5.02
2022-12-05T08:10:01.518Z,-4.86
2022-12-05T08:12:36.051Z,-4.63
2022-12-05T08:15:10.453Z,-4.09
2022-12-05T08:17:42.793Z,-3.41
2022-12-05T08:20:15.808Z,-2.75
2022-12-05T08:22:48.581Z,-2.58
2022-12-05T08:25:21.089Z,-2.60
2022-12-05T08:27:53.539Z,-2.80
2022-12-05T08:30:26.526Z,-3.09
2022-12-05T08:32:58.752Z,-3.37
2022-12-05T08:35:30.905Z,-3.43
2022-12-05T08:38:03.183Z,-3.18
2022-12-05T08:40:36.196Z,-3.13
2022-12-05T08:43:09.717Z,-3.18
2022-12-05T08:45:41.727Z,-3.26
2022-12-05T08:48:14.679Z,-3.33
2022-12-05T08:50:47.768Z,-3.40
2022-12-05T08:53:20.147Z,-3.40
2022-12-05T08:55:52.127Z,-3.42
2022-12-05T08:58:24.350Z,-3.45
2022-12-05T09:00:56.849Z,-3.48
2022-12-05T09:03:29.203Z,-3.54
2022-12-05T09:06:09.647Z,-3.60
2022-12-05T09:08:43.226Z,-3.65
2022-12-05T09:11:22.021Z,-3.67
2022-12-05T09:13:55.281Z,-3.69
2022-12-05T09:16:37.093Z,-3.71
2022-12-05T09:19:05.750Z,-3.79
2022-12-05T09:21:38.449Z,-3.90
2022-12-05T09:24:14.263Z,-4.03
2022-12-05T09:26:48.016Z,-4.12
2022-12-05T09:29:20.980Z,-4.19
2022-12-05T09:31:55.029Z,-4.20
2022-12-05T09:34:27.437Z,-4.27
2022-12-05T09:37:16.659Z,-4.28
2022-12-05T09:39:36.491Z,-4.29
2022-12-05T09:42:13.345Z,-4.24
2022-12-05T09:44:58.345Z,-4.26
2022-12-05T09:47:39.383Z,-4.24
2022-12-05T09:50:28.558Z,-4.18
2022-12-05T09:53:12.043Z,-4.15
2022-12-05T09:55:47.586Z,-4.16
2022-12-05T09:58:44.982Z,-4.15
2022-12-05T10:01:29.575Z,-4.10
2022-12-05T10:04:21.906Z,-4.12
2022-12-05T10:07:18.890Z,-4.12
2022-12-05T10:10:05.412Z,-4.12
2022-12-05T10:12:55.225Z,-4.15
2022-12-05T10:15:30.352Z,-4.16
2022-12-05T10:18:08.280Z,-4.23
2022-12-05T10:20:46.002Z,-4.23
2022-12-05T10:23:55.443Z,-4.28
2022-12-05T10:26:01.448Z,-4.29
2022-12-05T10:28:40.435Z,-4.28
2022-12-05T10:31:16.129Z,-4.35
2022-12-05T10:33:51.450Z,-4.33
2022-12-05T10:36:26.814Z,-4.35
2022-12-05T10:39:00.544Z,-4.37
2022-12-05T10:41:33.312Z,-4.43
2022-12-05T10:44:07.303Z,-4.44
2022-12-05T10:46:40.353Z,-4.47
2022-12-05T10:49:15.853Z,-4.47
2022-12-05T10:51:50.257Z,-4.47
2022-12-05T10:54:34.460Z,-4.43
2022-12-05T10:57:28.043Z,-4.49
2022-12-05T11:00:01.826Z,-4.50
2022-12-05T11:02:36.984Z,-4.54
2022-12-05T11:05:10.160Z,-4.58
2022-12-05T11:07:50.037Z,-4.61
2022-12-05T11:10:34.304Z,-4.64
2022-12-05T11:13:18.193Z,-4.71
2022-12-05T11:15:55.497Z,-4.74
2022-12-05T11:18:28.565Z,-4.79
2022-12-05T11:21:16.920Z,-4.81
2022-12-05T11:23:50.416Z,-4.84
2022-12-05T11:26:38.571Z,-4.87
2022-12-05T11:29:31.258Z,-4.89
2022-12-05T11:32:05.149Z,-4.91
2022-12-05T11:34:52.957Z,-4.93
2022-12-05T11:37:28.667Z,-4.95
2022-12-05T11:40:03.030Z,-4.97
2022-12-05T11:42:44.533Z,-4.97
2022-12-05T11:45:35.428Z,-4.96
2022-12-05T11:48:16.027Z,-4.97
2022-12-05T11:50:54.095Z,-4.93
2022-12-05T11:53:54.627Z,-4.96
2022-12-05T11:56:44.456Z,-4.99
2022-12-05T11:59:19.416Z,-5.02
2022-12-05T12:02:22.839Z,-5.04
2022-12-05T12:05:07.004Z,-5.03
2022-12-05T12:07:47.703Z,-5.08
2022-12-05T12:10:29.313Z,-5.11
2022-12-05T12:13:19.616Z,-5.13
2022-12-05T12:16:18.821Z,-5.18
2022-12-05T12:18:54.118Z,-5.16
2022-12-05T12:21:56.021Z,-5.20
2022-12-05T12:24:36.768Z,-5.25
2022-12-05T12:27:33.133Z,-5.29
2022-12-05T12:30:23.443Z,-5.31
2022-12-05T12:33:10.398Z,-5.38
2022-12-05T12:36:07.902Z,-5.43
2022-12-05T12:38:51.210Z,-5.51
2022-12-05T12:41:42.576Z,-5.55
2022-12-05T12:44:37.558Z,-5.63
2022-12-05T12:47:13.143Z,-5.68
2022-12-05T12:49:54.298Z,-5.75
2022-12-05T12:52:31.994Z,-5.79
2022-12-05T12:55:16.518Z,-5.85
2022-12-05T12:58:03.408Z,-5.90
2022-12-05T13:01:07.073Z,-5.95
2022-12-05T13:03:51.802Z,-5.97
2022-12-05T13:06:26.855Z,-6.01
2022-12-05T13:09:04.443Z,-6.06
2022-12-05T13:11:40.441Z,-6.10
2022-12-05T13:14:16.135Z,-6.12
2022-12-05T13:16:50.904Z,-6.15
2022-12-05T13:19:28.933Z,-6.16
2022-12-05T13:22:02.194Z,-6.16
2022-12-05T13:24:34.524Z,-6.17
2022-12-05T13:27:09.737Z,-6.15
2022-12-05T13:29:45.393Z,-6.17
2022-12-05T13:32:29.856Z,-6.16
2022-12-05T13:35:11.693Z,-6.14
2022-12-05T13:38:07.093Z,-6.10
2022-12-05T13:41:00.449Z,-6.14
2022-12-05T13:43:34.358Z,-6.17
2022-12-05T13:46:09.650Z,-6.20
2022-12-05T13:48:44.573Z,-6.21
2022-12-05T13:51:28.368Z,-6.25
2022-12-05T13:54:03.227Z,-6.28
2022-12-05T13:57:01.130Z,-6.30
2022-12-05T14:00:04.807Z,-6.32
2022-12-05T14:02:50.539Z,-6.31
2022-12-05T14:05:29.053Z,-6.29
2022-12-05T14:08:04.026Z,-6.29
2022-12-05T14:10:41.520Z,-6.28
2022-12-05T14:13:19.769Z,-6.23
2022-12-05T14:15:53.304Z,-6.25
2022-12-05T14:18:47.702Z,-6.27
2022-12-05T14:21:42.469Z,-6.25
2022-12-05T14:24:33.881Z,-6.25
2022-12-05T14:27:14.955Z,-6.28
2022-12-05T14:30:01.830Z,-6.30
2022-12-05T14:32:37.488Z,-6.35
2022-12-05T14:35:21.923Z,-6.35
2022-12-05T14:37:56.920Z,-6.37
2022-12-05T14:40:35.053Z,-6.39
2022-12-05T14:43:23.396Z,-6.40
2022-12-05T14:45:58.857Z,-6.41
2022-12-05T14:48:33.881Z,-6.40
2022-12-05T14:51:32.919Z,-6.42
2022-12-05T14:54:20.401Z,-6.40
2022-12-05T14:56:55.471Z,-6.39
2022-12-05T14:59:36.600Z,-6.38
2022-12-05T15:02:10.105Z,-6.32
2022-12-05T15:05:00.076Z,-6.31
2022-12-05T15:07:39.027Z,-6.30
2022-12-05T15:10:26.457Z,-6.32
2022-12-05T15:13:14.668Z,-6.35
2022-12-05T15:15:53.186Z,-6.26
2022-12-05T15:18:43.556Z,-6.24
2022-12-05T15:21:36.710Z,-6.20
2022-12-05T15:24:14.563Z,-6.12
2022-12-05T15:26:55.087Z,-6.07
2022-12-05T15:29:33.089Z,-6.02
2022-12-05T15:32:14.179Z,-5.92
2022-12-05T15:34:58.634Z,-5.89
2022-12-05T15:37:50.336Z,-5.82
2022-12-05T15:40:26.508Z,-5.81
2022-12-05T15:42:59.201Z,-5.81
2022-12-05T15:45:33.319Z,-5.85
2022-12-05T15:48:08.191Z,-5.88
2022-12-05T15:50:46.297Z,-5.91
2022-12-05T15:53:22.705Z,-5.93
2022-12-05T15:56:01.332Z,-5.94
2022-12-05T15:58:39.245Z,-5.96
2022-12-05T16:01:20.440Z,-5.92
2022-12-05T16:04:01.414Z,-5.92
2022-12-05T16:06:39.490Z,-5.85
2022-12-05T16:09:17.351Z,-5.85
2022-12-05T16:11:54.927Z,-5.87
2022-12-05T16:17:04.813Z,-5.92
2022-12-05T16:19:37.340Z,-5.92
2022-12-05T16:22:21.247Z,-5.93
2022-12-05T16:24:59.868Z,-5.92
2022-12-05T16:27:39.805Z,-5.91
2022-12-05T16:30:15.007Z,-5.87
2022-12-05T16:32:49.859Z,-5.84
2022-12-05T16:35:37.738Z,-5.81
2022-12-05T16:38:25.918Z,-5.80
2022-12-05T16:41:01.419Z,-5.79
2022-12-05T16:43:36.657Z,-5.80
2022-12-05T16:46:18.202Z,-5.82
2022-12-05T16:48:53.884Z,-5.84
2022-12-05T16:51:28.381Z,-5.86
2022-12-05T16:54:00.476Z,-5.85
2022-12-05T16:56:34.584Z,-5.82
2022-12-05T16:59:08.137Z,-5.77
2022-12-05T17:01:40.126Z,-5.73
2022-12-05T17:04:13.019Z,-5.58
2022-12-05T17:06:46.002Z,-5.65
2022-12-05T17:09:18.946Z,-5.71
2022-12-05T17:11:54.004Z,-5.71
2022-12-05T17:14:26.239Z,-5.75
2022-12-05T17:17:00.187Z,-5.73
2022-12-05T17:19:31.739Z,-5.73
2022-12-05T17:22:03.270Z,-5.53
2022-12-05T17:24:35.329Z,-5.63
2022-12-05T17:27:09.311Z,-5.62
2022-12-05T17:29:41.496Z,-5.62
2022-12-05T17:32:13.489Z,-5.58
2022-12-05T17:34:46.264Z,-5.52
2022-12-05T17:37:18.809Z,-5.48
2022-12-05T17:39:50.930Z,-5.45
2022-12-05T17:42:22.885Z,-5.40
2022-12-05T17:44:54.769Z,-5.38
2022-12-05T17:47:27.172Z,-5.33
2022-12-05T17:50:00.168Z,-5.35
2022-12-05T17:52:32.613Z,-5.30
2022-12-05T17:55:04.693Z,-5.31
2022-12-05T17:57:37.016Z,-5.27
2022-12-05T18:00:10.002Z,-5.25
2022-12-05T18:02:42.418Z,-5.23
2022-12-05T18:05:16.637Z,-5.21
2022-12-05T18:07:49.063Z,-5.17
2022-12-05T18:10:24.043Z,-5.00
2022-12-05T18:12:56.393Z,-5.07
2022-12-05T18:15:28.908Z,-5.08
2022-12-05T18:18:02.527Z,-5.07
2022-12-05T18:20:36.071Z,-5.08
2022-12-05T18:23:08.156Z,-5.10
2022-12-05T18:25:42.034Z,-5.26
2022-12-05T18:28:17.906Z,-5.33
2022-12-05T18:30:48.482Z,-5.48
2022-12-05T18:33:20.643Z,-5.57
2022-12-05T18:35:52.707Z,-5.65
2022-12-05T18:38:24.794Z,-5.72
2022-12-05T18:41:02.669Z,-5.82
2022-12-05T18:43:34.806Z,-5.85
2022-12-05T18:46:07.047Z,-5.95
2022-12-05T18:48:42.636Z,-6.05
2022-12-05T18:51:15.731Z,-6.13
2022-12-05T18:53:53.411Z,-6.22
2022-12-05T18:56:29.481Z,-6.27
2022-12-05T18:59:14.947Z,-6.30
2022-12-05T19:01:47.882Z,-6.30
2022-12-05T19:04:21.887Z,-6.30
2022-12-05T19:06:56.577Z,-6.24
2022-12-05T19:09:31.384Z,-6.22
2022-12-05T19:12:03.594Z,-6.18
2022-12-05T19:14:35.552Z,-6.12
2022-12-05T19:17:07.867Z,-6.08
2022-12-05T19:19:40.635Z,-6.02
2022-12-05T19:22:12.694Z,-6.00
2022-12-05T19:24:45.446Z,-5.97
2022-12-05T19:27:17.508Z,-5.92
2022-12-05T19:29:49.533Z,-5.90
2022-12-05T19:32:21.653Z,-5.90
2022-12-05T19:34:53.824Z,-5.89
2022-12-05T19:37:25.940Z,-5.92
2022-12-05T19:39:58.370Z,-5.91
2022-12-05T19:42:31.376Z,-5.90
2022-12-05T19:45:08.808Z,-5.90
2022-12-05T19:47:37.361Z,-5.90
2022-12-05T19:50:10.020Z,-5.88
2022-12-05T19:52:42.189Z,-5.89
2022-12-05T19:55:14.141Z,-5.80
2022-12-05T19:57:45.977Z,-5.87
2022-12-05T20:00:19.895Z,-5.93
2022-12-05T20:02:52.250Z,-6.02
2022-12-05T20:05:24.496Z,-6.12
2022-12-05T20:07:56.702Z,-6.21
2022-12-05T20:10:28.757Z,-6.28
2022-12-05T20:13:05.406Z,-6.38
2022-12-05T20:15:35.731Z,-6.47
2022-12-05T20:18:08.197Z,-6.47
2022-12-05T20:20:40.803Z,-6.50
2022-12-05T20:23:12.708Z,-6.53
2022-12-05T20:25:45.093Z,-6.57
2022-12-05T20:28:17.210Z,-6.58
2022-12-05T20:30:49.712Z,-6.57
2022-12-05T20:33:21.835Z,-6.60
2022-12-05T20:35:54.142Z,-6.62
2022-12-05T20:38:26.188Z,-6.61
2022-12-05T20:41:03.038Z,-6.59
2022-12-05T20:43:35.885Z,-6.51
2022-12-05T20:46:10.746Z,-6.45
2022-12-05T20:48:43.998Z,-6.37
2022-12-05T20:51:22.443Z,-6.34
2022-12-05T20:53:54.747Z,-6.28
2022-12-05T20:56:29.538Z,-6.24
2022-12-05T20:59:05.895Z,-6.18
2022-12-05T21:01:38.892Z,-6.14
2022-12-05T21:04:12.357Z,-6.11
2022-12-05T21:06:46.089Z,-6.04
2022-12-05T21:09:18.875Z,-6.06
2022-12-05T21:11:50.598Z,-5.96
2022-12-05T21:14:22.560Z,-6.11
2022-12-05T21:16:54.735Z,-6.08
2022-12-05T21:19:28.452Z,-6.05
2022-12-05T21:22:00.568Z,-6.12
2022-12-05T21:24:32.642Z,-6.17
2022-12-05T21:27:04.816Z,-6.20
2022-12-05T21:29:36.789Z,-6.24
2022-12-05T21:32:10.026Z,-6.25
2022-12-05T21:34:42.326Z,-6.31
2022-12-05T21:37:14.853Z,-6.33
2022-12-05T21:39:47.080Z,-6.34
2022-12-05T21:42:19.183Z,-6.34
2022-12-05T21:44:51.522Z,-6.32
2022-12-05T21:47:23.597Z,-6.28
2022-12-05T21:49:55.605Z,-6.27
2022-12-05T21:52:27.702Z,-6.23
2022-12-05T21:54:59.543Z,-6.22
2022-12-05T21:57:32.716Z,-6.22
2022-12-05T22:00:05.169Z,-6.23
2022-12-05T22:02:36.760Z,-6.24
2022-12-05T22:05:10.166Z,-6.23
2022-12-05T22:07:42.415Z,-6.26
2022-12-05T22:10:14.924Z,-6.29
2022-12-05T22:12:47.229Z,-6.39
2022-12-05T22:15:19.489Z,-6.49
2022-12-05T22:17:51.754Z,-6.56
2022-12-05T22:20:23.927Z,-6.55
2022-12-05T22:22:55.827Z,-6.59
2022-12-05T22:25:28.556Z,-6.59
2022-12-05T22:28:01.069Z,-6.59
2022-12-05T22:30:33.364Z,-6.60
2022-12-05T22:33:05.319Z,-6.61
2022-12-05T22:35:37.706Z,-6.61
2022-12-05T22:38:09.708Z,-6.59
2022-12-05T22:40:41.733Z,-6.56
2022-12-05T22:43:13.788Z,-6.51
2022-12-05T22:45:46.001Z,-6.51
2022-12-05T22:48:18.305Z,-6.48
2022-12-05T22:50:55.225Z,-6.51
2022-12-05T22:53:27.338Z,-6.52
2022-12-05T22:56:07.712Z,-6.54
2022-12-05T22:58:40.715Z,-6.56
2022-12-05T23:01:20.797Z,-6.59
2022-12-05T23:03:58.561Z,-6.56
2022-12-05T23:06:32.388Z,-6.54
2022-12-05T23:09:05.265Z,-6.51
2022-12-05T23:11:37.485Z,-6.44
2022-12-05T23:14:09.514Z,-6.56
2022-12-05T23:16:41.719Z,-6.61
2022-12-05T23:19:13.895Z,-6.63
2022-12-05T23:21:46.097Z,-6.61
2022-12-05T23:24:18.065Z,-6.63
2022-12-05T23:26:50.055Z,-6.55
2022-12-05T23:29:22.319Z,-6.51
2022-12-05T23:31:54.659Z,-6.53
2022-12-05T23:34:26.684Z,-6.50
2022-12-05T23:36:58.623Z,-6.48
2022-12-05T23:39:30.832Z,-6.46
2022-12-05T23:42:03.246Z,-6.45
2022-12-05T23:44:35.256Z,-6.46
2022-12-05T23:47:07.849Z,-6.45
2022-12-05T23:49:40.188Z,-6.39
2022-12-05T23:52:12.136Z,-6.38
2022-12-05T23:54:46.797Z,-6.38
2022-12-05T23:57:18.827Z,-6.38
2022-12-05T23:59:50.821Z,-6.39
